createdAt,value
2018-08-20T00:04:20.044Z,13.88
2018-08-20T00:10:23.750Z,14.25
2018-08-20T00:16:27.155Z,14.35
2018-08-20T00:22:30.685Z,13.30
2018-08-20T00:28:33.992Z,14.18
2018-08-20T00:34:38.605Z,13.15
2018-08-20T00:40:42.628Z,13.15
2018-08-20T00:46:46.488Z,11.95
2018-08-20T00:52:50.030Z,11.68
2018-08-20T00:58:53.738Z,11.60
2018-08-20T01:04:57.964Z,11.00
2018-08-20T01:11:01.495Z,10.38
2018-08-20T01:17:05.177Z,10.85
2018-08-20T01:23:08.953Z,10.75
2018-08-20T01:29:12.435Z,10.35
2018-08-20T01:35:25.207Z,9.90
2018-08-20T01:41:28.650Z,10.20
2018-08-20T01:47:32.143Z,10.30
2018-08-20T01:53:35.689Z,12.98
2018-08-20T01:59:39.080Z,13.08
2018-08-20T02:05:42.534Z,14.10
2018-08-20T02:12:54.977Z,15.50
2018-08-20T02:18:58.537Z,15.65
2018-08-20T02:25:01.901Z,16.75
2018-08-20T02:31:05.638Z,17.15
2018-08-20T02:37:09.771Z,16.80
2018-08-20T02:43:13.314Z,17.30
2018-08-20T02:49:17.410Z,17.25
2018-08-20T02:55:20.677Z,15.60
2018-08-20T03:01:24.252Z,16.23
2018-08-20T03:07:28.801Z,14.93
2018-08-20T03:13:33.477Z,15.63
2018-08-20T03:19:37.016Z,15.72
2018-08-20T03:25:41.115Z,15.85
2018-08-20T03:31:45.527Z,18.05
2018-08-20T03:37:49.328Z,17.62
2018-08-20T03:43:52.915Z,17.95
2018-08-20T03:49:56.455Z,18.85
2018-08-20T03:55:59.957Z,18.80
2018-08-20T04:02:04.762Z,19.60
2018-08-20T04:08:08.147Z,19.27
2018-08-20T04:14:11.992Z,18.83
2018-08-20T04:20:15.637Z,19.05
2018-08-20T04:26:20.684Z,18.65
2018-08-20T04:32:24.279Z,18.27
2018-08-20T04:38:27.646Z,18.43
2018-08-20T04:44:31.342Z,17.75
2018-08-20T04:50:35.383Z,14.55
2018-08-20T04:56:38.911Z,14.38
2018-08-20T05:02:42.327Z,16.70
2018-08-20T05:08:46.082Z,16.70
2018-08-20T05:14:49.683Z,16.25
2018-08-20T05:20:53.229Z,15.20
2018-08-20T05:26:56.456Z,14.68
2018-08-20T05:33:00.638Z,14.50
2018-08-20T05:39:06.310Z,13.33
2018-08-20T05:45:11.297Z,13.70
2018-08-20T05:51:14.840Z,15.85
2018-08-20T05:57:18.252Z,15.70
2018-08-20T06:03:22.109Z,16.20
2018-08-20T06:09:25.664Z,16.10
2018-08-20T06:15:29.377Z,16.40
2018-08-20T06:21:33.326Z,16.97
2018-08-20T06:27:36.991Z,15.57
2018-08-20T06:33:40.582Z,15.80
2018-08-20T06:39:44.144Z,15.17
2018-08-20T06:45:47.833Z,16.37
2018-08-20T06:51:51.838Z,14.13
2018-08-20T06:58:02.406Z,14.63
2018-08-20T07:04:06.176Z,14.17
2018-08-20T07:10:12.508Z,14.93
2018-08-20T07:16:16.249Z,14.17
2018-08-20T07:22:19.587Z,15.77
2018-08-20T07:28:23.523Z,15.00
2018-08-20T07:34:27.210Z,17.00
2018-08-20T07:40:30.794Z,16.03
2018-08-20T07:46:34.322Z,17.97
2018-08-20T07:52:38.015Z,17.63
2018-08-20T07:58:41.539Z,16.83
2018-08-20T08:04:45.067Z,17.03
2018-08-20T08:10:49.543Z,17.37
2018-08-20T08:16:53.135Z,18.03
2018-08-20T08:22:56.532Z,17.48
2018-08-20T08:29:00.120Z,17.97
2018-08-20T08:35:04.116Z,18.40
2018-08-20T08:41:07.455Z,17.92
2018-08-20T08:47:10.996Z,20.35
2018-08-20T08:53:14.719Z,19.75
2018-08-20T08:59:18.622Z,19.40
2018-08-20T09:05:27.889Z,21.12
2018-08-20T09:11:31.515Z,19.62
2018-08-20T09:17:34.939Z,21.42
2018-08-20T09:23:38.809Z,20.90
2018-08-20T09:29:42.322Z,22.37
2018-08-20T09:35:46.616Z,21.65
2018-08-20T09:41:50.180Z,21.27
2018-08-20T09:47:54.397Z,23.77
2018-08-20T09:53:58.365Z,23.87
2018-08-20T10:00:02.644Z,26.42
2018-08-20T10:06:06.727Z,25.62
2018-08-20T10:12:15.330Z,27.55
2018-08-20T10:18:19.327Z,25.75
2018-08-20T10:24:27.320Z,25.75
2018-08-20T10:30:32.146Z,24.50
2018-08-20T10:36:37.572Z,25.23
2018-08-20T10:42:41.785Z,25.52
2018-08-20T10:48:47.149Z,28.73
2018-08-20T10:54:51.745Z,29.23
2018-08-20T11:00:55.461Z,30.23
2018-08-20T11:07:00.089Z,27.30
2018-08-20T11:13:04.981Z,25.80
2018-08-20T11:19:10.984Z,27.58
2018-08-20T11:25:15.547Z,26.37
2018-08-20T11:31:20.216Z,23.02
2018-08-20T11:37:25.074Z,26.17
2018-08-20T11:43:29.499Z,24.27
2018-08-20T11:49:35.371Z,22.62
2018-08-20T11:55:39.603Z,21.17
2018-08-20T12:01:43.371Z,21.40
2018-08-20T12:07:48.469Z,20.52
2018-08-20T12:13:52.754Z,21.70
2018-08-20T12:19:56.565Z,20.15
2018-08-20T12:26:01.746Z,21.00
2018-08-20T12:32:05.514Z,22.50
2018-08-20T12:38:09.878Z,17.73
2018-08-20T12:44:13.218Z,17.80
2018-08-20T12:50:16.621Z,20.35
2018-08-20T12:56:20.050Z,22.70
2018-08-20T13:02:23.445Z,25.65
2018-08-20T13:08:26.832Z,23.40
2018-08-20T13:14:30.239Z,24.87
2018-08-20T13:20:34.388Z,26.00
2018-08-20T13:26:37.932Z,24.75
2018-08-20T13:32:41.284Z,22.25
2018-08-20T13:38:44.776Z,18.48
2018-08-20T13:44:48.315Z,16.57
2018-08-20T13:50:54.075Z,15.70
2018-08-20T13:56:57.520Z,16.25
2018-08-20T14:03:01.062Z,15.35
2018-08-20T14:09:07.299Z,16.00
2018-08-20T14:15:12.120Z,16.65
2018-08-20T14:21:15.879Z,17.30
2018-08-20T14:27:19.212Z,15.58
2018-08-20T14:33:22.545Z,16.30
2018-08-20T14:39:26.271Z,15.43
2018-08-20T14:45:35.436Z,18.10
2018-08-20T14:51:38.821Z,15.15
2018-08-20T14:57:42.190Z,15.83
2018-08-20T15:03:45.522Z,16.00
2018-08-20T15:09:49.528Z,14.00
2018-08-20T15:15:53.287Z,11.73
2018-08-20T15:21:56.722Z,9.83
2018-08-20T15:28:02.650Z,8.43
2018-08-20T15:34:14.989Z,6.95
2018-08-20T15:40:23.849Z,4.35
2018-08-20T15:46:27.392Z,2.92
2018-08-20T15:52:30.990Z,2.67
2018-08-20T15:58:35.742Z,1.85
2018-08-20T16:04:39.293Z,2.10
2018-08-20T16:10:42.755Z,1.90
2018-08-20T16:16:47.876Z,1.90
2018-08-20T16:22:51.891Z,2.33
2018-08-20T16:28:56.413Z,1.98
2018-08-20T16:35:00.528Z,1.90
2018-08-20T16:41:04.568Z,1.52
2018-08-20T16:47:08.142Z,1.50
2018-08-20T16:53:11.914Z,1.55
2018-08-20T16:59:15.277Z,1.70
2018-08-20T17:05:19.842Z,1.77
2018-08-20T17:11:23.447Z,1.90
2018-08-20T17:17:27.341Z,1.80
2018-08-20T17:23:34.485Z,2.37
2018-08-20T17:29:38.457Z,2.00
2018-08-20T17:35:43.294Z,1.65
2018-08-20T17:41:47.439Z,1.80
2018-08-20T17:47:52.026Z,1.80
2018-08-20T17:53:59.863Z,1.85
2018-08-20T18:00:44.303Z,2.37
2018-08-20T18:06:53.147Z,2.65
2018-08-20T18:12:56.921Z,2.02
2018-08-20T18:19:00.813Z,2.20
2018-08-20T18:25:04.700Z,2.20
2018-08-20T18:31:11.029Z,1.60
2018-08-20T18:37:14.497Z,1.75
2018-08-20T18:43:18.213Z,1.32
2018-08-20T18:49:22.250Z,1.50
2018-08-20T18:55:25.927Z,1.67
2018-08-20T19:01:29.414Z,1.70
2018-08-20T19:07:32.768Z,1.85
2018-08-20T19:13:36.195Z,1.70
2018-08-20T19:19:44.390Z,1.85
2018-08-20T19:25:48.205Z,1.80
2018-08-20T19:31:52.243Z,1.32
2018-08-20T19:37:55.571Z,1.50
2018-08-20T19:43:59.671Z,1.75
2018-08-20T19:50:04.877Z,1.82
2018-08-20T19:56:13.478Z,1.55
2018-08-20T20:02:19.453Z,1.75
2018-08-20T20:08:22.868Z,1.95
2018-08-20T20:14:33.584Z,1.80
2018-08-20T20:20:37.476Z,2.27
2018-08-20T20:26:41.767Z,2.40
2018-08-20T20:32:46.340Z,4.58
2018-08-20T20:38:50.281Z,2.20
2018-08-20T20:44:55.029Z,1.60
2018-08-20T20:50:59.199Z,1.87
2018-08-20T20:57:03.684Z,2.10
2018-08-20T21:03:10.282Z,2.60
2018-08-20T21:09:13.938Z,2.37
2018-08-20T21:15:17.970Z,2.15
2018-08-20T21:21:22.301Z,1.90
2018-08-20T21:27:28.168Z,2.30
2018-08-20T21:33:33.532Z,1.90
2018-08-20T21:39:37.383Z,2.00
2018-08-20T21:45:40.944Z,1.90
2018-08-20T21:51:50.172Z,1.92
2018-08-20T21:57:57.264Z,1.87
2018-08-20T22:04:03.929Z,2.00
2018-08-20T22:10:08.591Z,2.12
2018-08-20T22:16:18.030Z,2.10
2018-08-20T22:22:25.149Z,2.20
2018-08-20T22:28:28.594Z,2.20
2018-08-20T22:34:31.920Z,2.05
2018-08-20T22:40:35.355Z,1.80
2018-08-20T22:46:38.793Z,1.92
2018-08-20T22:52:43.984Z,2.00
2018-08-20T22:58:48.545Z,1.90
2018-08-20T23:04:57.337Z,1.60
2018-08-20T23:11:00.939Z,1.70
2018-08-20T23:17:04.447Z,1.80
2018-08-20T23:23:07.848Z,1.77
2018-08-20T23:29:11.515Z,2.08
2018-08-20T23:35:15.103Z,1.52
2018-08-20T23:41:18.470Z,1.90
2018-08-20T23:47:21.863Z,2.05
2018-08-20T23:53:25.770Z,1.70
2018-08-20T23:59:29.026Z,1.70
